Weather


East Midlands Airport Weather (Opens a new tab)

Available data for EGNX from the past hour
EAST MIDLANDS
Metar
EGNX 201750Z 10011KT CAVOK 18/11 Q1021

17:50 UTC

Wind: 100° 11kt

Visibility:

Sky:

Temp: 18 deg C / 64.4 deg F

Dewpoint: 11 deg C / 51.8 deg F

Pressure: 1021 hPa

Infra-Red Satellite Picture